createdAt,value
2023-02-28T00:00:38.218Z,-0.60
2023-02-28T00:03:05.126Z,-0.60
2023-02-28T00:05:32.063Z,-0.60
2023-02-28T00:07:58.801Z,-0.60
2023-02-28T00:10:30.741Z,-0.60
2023-02-28T00:13:02.719Z,-0.50
2023-02-28T00:15:29.459Z,-0.60
2023-02-28T00:17:56.173Z,-0.80
2023-02-28T00:20:23.146Z,-0.90
2023-02-28T00:22:52.063Z,-0.80
2023-02-28T00:25:21.895Z,-0.80
2023-02-28T00:27:49.152Z,-0.90
2023-02-28T00:30:19.476Z,-0.90
2023-02-28T00:32:46.714Z,-0.90
2023-02-28T00:35:13.883Z,-1.00
2023-02-28T00:37:42.133Z,-1.10
2023-02-28T00:40:10.505Z,-1.10
2023-02-28T00:42:37.535Z,-1.10
2023-02-28T00:45:05.804Z,-1.00
2023-02-28T00:47:33.460Z,-1.00
2023-02-28T00:50:00.963Z,-1.00
2023-02-28T00:52:28.609Z,-1.00
2023-02-28T00:54:55.497Z,-0.90
2023-02-28T00:57:22.259Z,-0.90
2023-02-28T00:59:49.202Z,-0.90
2023-02-28T01:02:15.908Z,-0.90
2023-02-28T01:04:42.654Z,-0.90
2023-02-28T01:07:09.395Z,-0.90
2023-02-28T01:09:36.184Z,-0.90
2023-02-28T01:12:02.835Z,-0.90
2023-02-28T01:14:29.661Z,-0.90
2023-02-28T01:16:57.080Z,-0.90
2023-02-28T01:19:25.603Z,-0.90
2023-02-28T01:21:52.367Z,-0.90
2023-02-28T01:24:19.097Z,-1.00
2023-02-28T01:26:45.825Z,-0.80
2023-02-28T01:29:12.502Z,-0.80
2023-02-28T01:31:39.288Z,-0.90
2023-02-28T01:34:08.584Z,-0.90
2023-02-28T01:36:35.294Z,-0.90
2023-02-28T01:39:01.954Z,-1.00
2023-02-28T01:41:32.087Z,-1.10
2023-02-28T01:44:04.238Z,-1.10
2023-02-28T01:46:32.976Z,-1.20
2023-02-28T01:49:15.770Z,-1.30
2023-02-28T01:51:51.755Z,-1.30
2023-02-28T01:54:30.370Z,-1.40
2023-02-28T01:57:10.283Z,-1.50
2023-02-28T01:59:52.022Z,-1.60
2023-02-28T02:02:21.340Z,-1.70
2023-02-28T02:05:10.167Z,-1.70
2023-02-28T02:07:40.318Z,-1.70
2023-02-28T02:10:15.881Z,-1.80
2023-02-28T02:13:02.953Z,-1.70
2023-02-28T02:15:42.825Z,-1.80
2023-02-28T02:18:22.164Z,-1.80
2023-02-28T02:21:27.595Z,-1.80
2023-02-28T02:24:03.506Z,-1.70
2023-02-28T02:26:43.617Z,-1.70
2023-02-28T02:29:32.030Z,-1.70
2023-02-28T02:32:35.118Z,-1.70
2023-02-28T02:35:24.756Z,-1.50
2023-02-28T02:37:58.194Z,-1.50
2023-02-28T02:40:48.996Z,-1.50
2023-02-28T02:43:23.722Z,-1.50
2023-02-28T02:45:52.858Z,-1.50
2023-02-28T02:48:26.996Z,-1.60
2023-02-28T02:51:00.465Z,-1.60
2023-02-28T02:53:42.415Z,-1.70
2023-02-28T02:56:10.306Z,-1.70
2023-02-28T02:58:42.992Z,-1.70
2023-02-28T03:01:28.724Z,-1.70
2023-02-28T03:04:06.833Z,-1.80
2023-02-28T03:06:33.780Z,-1.80
2023-02-28T03:09:01.611Z,-1.90
2023-02-28T03:11:30.091Z,-1.90
2023-02-28T03:14:23.926Z,-2.00
2023-02-28T03:17:04.091Z,-2.00
2023-02-28T03:19:55.643Z,-2.10
2023-02-28T03:22:32.532Z,-2.20
2023-02-28T03:25:19.605Z,-2.10
2023-02-28T03:28:23.790Z,-2.20
2023-02-28T03:30:55.340Z,-2.30
2023-02-28T03:33:31.145Z,-2.20
2023-02-28T03:36:11.445Z,-2.30
2023-02-28T03:38:49.802Z,-2.30
2023-02-28T03:41:30.367Z,-2.30
2023-02-28T03:44:06.801Z,-2.40
2023-02-28T03:46:38.306Z,-2.40
2023-02-28T03:49:14.584Z,-2.30
2023-02-28T03:51:43.733Z,-2.40
2023-02-28T03:54:31.572Z,-2.50
2023-02-28T03:57:07.498Z,-2.50
2023-02-28T03:59:44.246Z,-2.50
2023-02-28T04:02:11.059Z,-2.50
2023-02-28T04:04:38.020Z,-2.60
2023-02-28T04:07:09.192Z,-2.60
2023-02-28T04:09:36.006Z,-2.60
2023-02-28T04:12:02.706Z,-2.70
2023-02-28T04:14:29.386Z,-2.70
2023-02-28T04:16:56.091Z,-2.80
2023-02-28T04:19:22.797Z,-2.80
2023-02-28T04:21:54.055Z,-2.90
2023-02-28T04:24:23.983Z,-2.90
2023-02-28T04:26:56.458Z,-2.90
2023-02-28T04:29:32.682Z,-2.90
2023-02-28T04:32:01.067Z,-3.00
2023-02-28T04:34:29.593Z,-3.00
2023-02-28T04:37:11.980Z,-3.00
2023-02-28T04:39:40.573Z,-3.00
2023-02-28T04:42:07.295Z,-3.00
2023-02-28T04:44:33.963Z,-3.10
2023-02-28T04:47:01.108Z,-3.20
2023-02-28T04:49:27.805Z,-3.20
2023-02-28T04:51:54.823Z,-3.30
2023-02-28T04:54:21.803Z,-3.30
2023-02-28T04:56:50.716Z,-3.40
2023-02-28T04:59:17.653Z,-3.40
2023-02-28T05:01:48.540Z,-3.40
2023-02-28T05:04:15.258Z,-3.50
2023-02-28T05:06:41.918Z,-3.50
2023-02-28T05:09:08.671Z,-3.50
2023-02-28T05:11:36.216Z,-3.50
2023-02-28T05:14:05.147Z,-3.50
2023-02-28T05:16:32.923Z,-3.60
2023-02-28T05:18:59.853Z,-3.60
2023-02-28T05:21:31.877Z,-3.60
2023-02-28T05:24:01.118Z,-3.60
2023-02-28T05:26:28.791Z,-3.70
2023-02-28T05:28:55.928Z,-3.70
2023-02-28T05:31:23.312Z,-3.70
2023-02-28T05:33:50.008Z,-3.70
2023-02-28T05:36:16.735Z,-3.80
2023-02-28T05:38:43.443Z,-3.80
2023-02-28T05:41:10.837Z,-3.80
2023-02-28T05:43:38.576Z,-3.80
2023-02-28T05:46:10.216Z,-3.70
2023-02-28T05:48:39.027Z,-3.70
2023-02-28T05:51:06.681Z,-3.80
2023-02-28T05:53:34.122Z,-3.80
2023-02-28T05:56:01.293Z,-3.80
2023-02-28T05:58:31.524Z,-3.80
2023-02-28T06:00:59.621Z,-3.80
2023-02-28T06:03:26.720Z,-3.90
2023-02-28T06:05:53.611Z,-3.90
2023-02-28T06:08:20.349Z,-3.90
2023-02-28T06:10:47.214Z,-3.90
2023-02-28T06:13:14.064Z,-4.00
2023-02-28T06:15:40.736Z,-4.00
2023-02-28T06:18:07.968Z,-4.10
2023-02-28T06:20:35.452Z,-4.10
2023-02-28T06:23:02.154Z,-4.10
2023-02-28T06:25:29.064Z,-4.10
2023-02-28T06:27:56.313Z,-4.00
2023-02-28T06:30:27.668Z,-4.10
2023-02-28T06:32:55.437Z,-4.10
2023-02-28T06:35:22.693Z,-4.10
2023-02-28T06:37:49.462Z,-4.00
2023-02-28T06:40:16.319Z,-4.10
2023-02-28T06:42:43.037Z,-4.00
2023-02-28T06:45:11.554Z,-3.80
2023-02-28T06:47:42.241Z,-3.90
2023-02-28T06:50:11.535Z,-3.70
2023-02-28T06:52:38.373Z,-3.60
2023-02-28T06:55:06.682Z,-3.60
2023-02-28T06:57:36.080Z,-3.60
2023-02-28T07:00:08.306Z,-3.50
2023-02-28T07:02:37.183Z,-3.50
2023-02-28T07:05:04.541Z,-3.40
2023-02-28T07:07:31.476Z,-3.30
2023-02-28T07:09:58.206Z,-3.20
2023-02-28T07:12:24.946Z,-3.10
2023-02-28T07:14:51.697Z,-2.90
2023-02-28T07:17:18.353Z,-2.90
2023-02-28T07:19:45.029Z,-2.80
2023-02-28T07:22:11.715Z,-2.70
2023-02-28T07:24:39.115Z,-2.60
2023-02-28T07:27:05.923Z,-2.40
2023-02-28T07:29:32.698Z,-2.30
2023-02-28T07:31:59.417Z,-2.00
2023-02-28T07:34:26.909Z,-1.80
2023-02-28T07:36:54.794Z,-1.40
2023-02-28T07:39:22.720Z,-0.80
2023-02-28T07:41:49.395Z,-0.40
2023-02-28T07:44:16.173Z,-0.10
2023-02-28T07:46:43.046Z,0.20
2023-02-28T07:49:09.830Z,0.60
2023-02-28T07:51:36.514Z,0.80
2023-02-28T07:54:03.306Z,1.20
2023-02-28T07:56:30.295Z,1.60
2023-02-28T07:58:57.174Z,1.50
2023-02-28T08:01:23.915Z,1.40
2023-02-28T08:03:50.760Z,1.60
2023-02-28T08:06:22.998Z,2.00
2023-02-28T08:08:50.331Z,2.20
2023-02-28T08:11:17.752Z,2.60
2023-02-28T08:13:45.453Z,3.00
2023-02-28T08:16:16.465Z,3.30
2023-02-28T08:18:43.233Z,3.20
2023-02-28T08:21:11.140Z,3.10
2023-02-28T08:23:38.218Z,3.80
2023-02-28T08:26:05.236Z,4.80
2023-02-28T08:28:32.228Z,4.00
2023-02-28T08:30:59.359Z,4.30
2023-02-28T08:33:27.522Z,4.40
2023-02-28T08:35:55.921Z,4.30
2023-02-28T08:38:23.453Z,4.20
2023-02-28T08:40:50.573Z,4.90
2023-02-28T08:43:17.403Z,4.70
2023-02-28T08:45:44.170Z,4.90
2023-02-28T08:48:10.884Z,5.30
2023-02-28T08:50:38.344Z,5.60
2023-02-28T08:53:04.995Z,5.40
2023-02-28T08:55:34.501Z,5.80
2023-02-28T08:58:02.140Z,6.80
2023-02-28T09:00:29.555Z,6.90
2023-02-28T09:02:56.193Z,7.50
2023-02-28T09:05:23.969Z,7.60
2023-02-28T09:07:51.010Z,7.80
2023-02-28T09:10:17.832Z,6.70
2023-02-28T09:12:46.929Z,6.10
2023-02-28T09:15:14.026Z,5.80
2023-02-28T09:17:40.830Z,5.30
2023-02-28T09:20:08.369Z,6.00
2023-02-28T09:22:35.058Z,5.70
2023-02-28T09:25:01.763Z,5.30
2023-02-28T09:27:28.451Z,5.30
2023-02-28T09:29:55.090Z,5.30
2023-02-28T09:32:21.920Z,5.40
2023-02-28T09:34:48.630Z,5.50
2023-02-28T09:37:15.311Z,6.70
2023-02-28T09:39:42.054Z,6.60
2023-02-28T09:42:23.264Z,6.10
2023-02-28T09:44:51.671Z,6.50
2023-02-28T09:47:32.175Z,6.50
2023-02-28T09:50:18.410Z,6.50
2023-02-28T09:52:49.136Z,6.40
2023-02-28T09:55:46.323Z,6.40
2023-02-28T09:58:31.520Z,6.40
2023-02-28T10:01:22.444Z,6.70
2023-02-28T10:04:01.270Z,7.20
2023-02-28T10:06:33.412Z,6.80
2023-02-28T10:09:17.726Z,7.60
2023-02-28T10:14:22.633Z,7.20
2023-02-28T10:16:54.582Z,6.90
2023-02-28T10:19:39.657Z,6.80
2023-02-28T10:22:15.762Z,7.70
2023-02-28T10:24:52.433Z,7.30
2023-02-28T10:27:29.734Z,7.20
2023-02-28T10:30:00.103Z,7.50
2023-02-28T10:32:30.967Z,7.30
2023-02-28T10:35:10.268Z,6.90
2023-02-28T10:37:45.018Z,6.90
2023-02-28T10:40:23.482Z,6.50
2023-02-28T10:43:04.179Z,6.20
2023-02-28T10:45:34.918Z,5.70
2023-02-28T10:48:35.092Z,5.30
2023-02-28T10:51:04.890Z,5.10
2023-02-28T10:54:00.168Z,4.90
2023-02-28T10:56:28.921Z,5.20
2023-02-28T10:59:09.494Z,5.80
2023-02-28T11:01:49.916Z,6.20
2023-02-28T11:04:30.270Z,6.80
2023-02-28T11:07:01.107Z,6.20
2023-02-28T11:09:41.025Z,6.50
2023-02-28T11:12:21.895Z,6.60
2023-02-28T11:14:51.741Z,7.50
2023-02-28T11:17:27.908Z,7.70
2023-02-28T11:19:58.499Z,8.20
2023-02-28T11:22:29.749Z,8.10
2023-02-28T11:25:00.381Z,8.90
2023-02-28T11:27:47.800Z,8.60
2023-02-28T11:30:38.921Z,9.20
2023-02-28T11:33:24.156Z,8.70
2023-02-28T11:35:53.160Z,8.60
2023-02-28T11:38:20.005Z,8.80
2023-02-28T11:40:55.395Z,8.50
2023-02-28T11:43:51.492Z,8.00
2023-02-28T11:46:39.316Z,8.70
2023-02-28T11:49:46.364Z,8.30
2023-02-28T11:52:34.694Z,7.80
2023-02-28T11:55:20.909Z,8.40
2023-02-28T11:58:15.479Z,8.30
2023-02-28T12:00:51.415Z,8.80
2023-02-28T12:03:26.651Z,8.20
2023-02-28T12:06:08.468Z,7.90
2023-02-28T12:09:02.999Z,7.90
2023-02-28T12:11:49.958Z,7.60
2023-02-28T12:14:30.747Z,7.50
2023-02-28T12:17:20.002Z,7.60
2023-02-28T12:20:31.079Z,7.80
2023-02-28T12:23:35.612Z,6.80
2023-02-28T12:26:05.221Z,6.40
2023-02-28T12:28:37.992Z,6.70
2023-02-28T12:31:31.844Z,7.20
2023-02-28T12:34:04.206Z,7.60
2023-02-28T12:36:30.977Z,7.70
2023-02-28T12:39:03.675Z,7.00
2023-02-28T12:41:43.382Z,6.80
2023-02-28T12:44:24.274Z,7.00
2023-02-28T12:46:54.641Z,7.80
2023-02-28T12:49:27.941Z,7.60
2023-02-28T12:51:54.826Z,7.60
2023-02-28T12:54:38.505Z,7.40
2023-02-28T12:57:20.535Z,7.80
2023-02-28T12:59:55.104Z,7.60
2023-02-28T13:03:01.632Z,8.10
2023-02-28T13:05:52.869Z,8.40
2023-02-28T13:08:53.342Z,8.50
2023-02-28T13:11:41.769Z,8.20
2023-02-28T13:14:23.384Z,8.00
2023-02-28T13:16:57.328Z,8.40
2023-02-28T13:19:26.959Z,8.80
2023-02-28T13:21:54.279Z,7.90
2023-02-28T13:24:39.451Z,7.70
2023-02-28T13:27:06.391Z,7.40
2023-02-28T13:29:39.607Z,7.40
2023-02-28T13:32:09.690Z,7.70
2023-02-28T13:34:37.898Z,8.30
2023-02-28T13:37:22.985Z,7.60
2023-02-28T13:39:52.646Z,8.40
2023-02-28T13:42:31.526Z,8.30
2023-02-28T13:45:04.329Z,8.90
2023-02-28T13:47:44.050Z,8.20
2023-02-28T13:50:28.182Z,8.50
2023-02-28T13:53:16.187Z,8.40
2023-02-28T13:56:05.434Z,8.30
2023-02-28T13:58:44.190Z,9.80
2023-02-28T14:01:26.436Z,9.70
2023-02-28T14:04:15.884Z,9.20
2023-02-28T14:06:52.461Z,9.60
2023-02-28T14:09:28.140Z,8.90
2023-02-28T14:11:54.987Z,8.50
2023-02-28T14:14:36.781Z,9.10
2023-02-28T14:17:13.553Z,8.70
2023-02-28T14:19:40.570Z,9.40
2023-02-28T14:22:40.231Z,8.50
2023-02-28T14:25:43.485Z,7.70
2023-02-28T14:28:47.990Z,8.10
2023-02-28T14:31:30.664Z,8.70
2023-02-28T14:34:12.105Z,8.80
2023-02-28T14:36:41.797Z,9.40
2023-02-28T14:39:14.603Z,9.20
2023-02-28T14:41:43.134Z,8.30
2023-02-28T14:44:22.054Z,8.60
2023-02-28T14:46:58.199Z,8.50
2023-02-28T14:49:36.719Z,8.50
2023-02-28T14:52:18.766Z,8.50
2023-02-28T14:54:46.395Z,8.90
2023-02-28T14:57:31.655Z,8.60
2023-02-28T15:00:14.170Z,8.80
2023-02-28T15:02:42.397Z,8.60
2023-02-28T15:05:17.885Z,8.80
2023-02-28T15:07:45.870Z,9.60
2023-02-28T15:10:25.049Z,8.80
2023-02-28T15:12:59.153Z,8.10
2023-02-28T15:16:05.894Z,8.40
2023-02-28T15:18:53.564Z,8.30
2023-02-28T15:21:27.340Z,7.70
2023-02-28T15:24:24.795Z,7.60
2023-02-28T15:26:58.861Z,8.40
2023-02-28T15:29:28.533Z,7.90
2023-02-28T15:32:08.349Z,7.90
2023-02-28T15:34:43.797Z,8.30
2023-02-28T15:37:40.917Z,8.50
2023-02-28T15:40:29.626Z,8.80
2023-02-28T15:43:17.506Z,8.10
2023-02-28T15:45:50.968Z,8.40
2023-02-28T15:48:30.662Z,7.80
2023-02-28T15:51:02.574Z,7.40
2023-02-28T15:53:52.523Z,7.50
2023-02-28T15:56:56.247Z,7.80
2023-02-28T15:59:27.098Z,7.60
2023-02-28T16:02:11.296Z,7.80
2023-02-28T16:04:54.851Z,7.50
2023-02-28T16:07:21.529Z,7.40
2023-02-28T16:09:49.071Z,7.50
2023-02-28T16:12:15.734Z,7.70
2023-02-28T16:14:43.546Z,7.30
2023-02-28T16:17:25.772Z,7.00
2023-02-28T16:19:52.629Z,7.20
2023-02-28T16:22:19.416Z,7.90
2023-02-28T16:24:46.194Z,7.70
2023-02-28T16:27:19.870Z,7.00
2023-02-28T16:29:47.457Z,7.10
2023-02-28T16:32:16.542Z,6.50
2023-02-28T16:34:44.691Z,6.20
2023-02-28T16:37:16.790Z,5.80
2023-02-28T16:39:44.068Z,5.80
2023-02-28T16:42:20.890Z,5.50
2023-02-28T16:44:48.062Z,5.50
2023-02-28T16:47:14.882Z,5.20
2023-02-28T16:49:43.252Z,5.20
2023-02-28T16:52:12.659Z,5.20
2023-02-28T16:54:40.361Z,5.00
2023-02-28T16:57:12.835Z,4.90
2023-02-28T16:59:39.692Z,4.90
2023-02-28T17:02:14.316Z,4.70
2023-02-28T17:04:41.163Z,4.70
2023-02-28T17:07:13.511Z,4.70
2023-02-28T17:09:43.586Z,4.60
2023-02-28T17:12:12.151Z,4.60
2023-02-28T17:14:39.444Z,4.50
2023-02-28T17:17:07.262Z,4.40
2023-02-28T17:19:35.600Z,4.40
2023-02-28T17:22:03.764Z,4.40
2023-02-28T17:24:31.513Z,4.40
2023-02-28T17:26:58.777Z,4.30
2023-02-28T17:29:25.923Z,4.30
2023-02-28T17:31:52.986Z,4.30
2023-02-28T17:34:20.612Z,4.20
2023-02-28T17:36:48.941Z,4.10
2023-02-28T17:39:20.750Z,4.10
2023-02-28T17:41:47.470Z,4.00
2023-02-28T17:44:14.118Z,3.70
2023-02-28T17:46:41.139Z,3.70
2023-02-28T17:49:09.308Z,3.60
2023-02-28T17:51:36.037Z,3.60
2023-02-28T17:54:02.799Z,3.50
2023-02-28T17:56:30.101Z,3.40
2023-02-28T17:58:57.398Z,3.30
2023-02-28T18:01:27.768Z,3.20
2023-02-28T18:03:55.597Z,3.20
2023-02-28T18:06:28.272Z,3.10
2023-02-28T18:08:55.779Z,3.10
2023-02-28T18:11:24.260Z,3.00
2023-02-28T18:13:53.631Z,3.00
2023-02-28T18:16:22.266Z,2.90
2023-02-28T18:18:49.905Z,2.90
2023-02-28T18:21:17.491Z,2.90
2023-02-28T18:23:48.395Z,2.80
2023-02-28T18:26:17.649Z,2.70
2023-02-28T18:28:44.886Z,2.60
2023-02-28T18:31:17.979Z,2.50
2023-02-28T18:33:48.070Z,2.40
2023-02-28T18:36:14.932Z,2.30
2023-02-28T18:38:42.187Z,2.20
2023-02-28T18:41:09.640Z,2.00
2023-02-28T18:43:40.444Z,2.00
2023-02-28T18:46:12.843Z,2.00
2023-02-28T18:48:40.201Z,1.90
2023-02-28T18:51:23.345Z,1.90
2023-02-28T18:53:50.863Z,1.80
2023-02-28T18:56:20.430Z,1.90
2023-02-28T18:58:47.278Z,1.90
2023-02-28T19:01:23.455Z,1.80
2023-02-28T19:03:50.810Z,1.80
2023-02-28T19:06:19.092Z,1.80
2023-02-28T19:08:45.840Z,1.70
2023-02-28T19:11:15.669Z,1.70
2023-02-28T19:13:42.961Z,1.60
2023-02-28T19:16:11.365Z,1.60
2023-02-28T19:18:38.344Z,1.60
2023-02-28T19:21:10.293Z,1.50
2023-02-28T19:23:38.371Z,1.50
2023-02-28T19:26:16.807Z,1.40
2023-02-28T19:28:44.007Z,1.30
2023-02-28T19:31:19.338Z,1.20
2023-02-28T19:33:46.687Z,1.00
2023-02-28T19:36:15.139Z,0.90
2023-02-28T19:38:42.303Z,0.70
2023-02-28T19:41:11.570Z,0.60
2023-02-28T19:43:38.279Z,0.60
2023-02-28T19:46:05.612Z,0.40
2023-02-28T19:48:32.897Z,0.40
2023-02-28T19:51:05.253Z,0.40
2023-02-28T19:53:33.639Z,0.40
2023-02-28T19:56:00.584Z,0.40
2023-02-28T19:58:27.985Z,0.40
2023-02-28T20:00:54.740Z,0.40
2023-02-28T20:03:21.974Z,0.40
2023-02-28T20:05:59.714Z,0.40
2023-02-28T20:08:26.726Z,0.30
2023-02-28T20:10:53.447Z,0.20
2023-02-28T20:13:20.679Z,0.20
2023-02-28T20:15:49.772Z,0.10
2023-02-28T20:18:16.427Z,0.00
2023-02-28T20:20:43.257Z,-0.10
2023-02-28T20:23:09.994Z,-0.10
2023-02-28T20:25:40.415Z,-0.20
2023-02-28T20:28:07.154Z,-0.20
2023-02-28T20:30:33.991Z,-0.20
2023-02-28T20:33:00.745Z,-0.30
2023-02-28T20:35:27.435Z,-0.40
2023-02-28T20:37:54.456Z,-0.40
2023-02-28T20:40:21.237Z,-0.40
2023-02-28T20:42:47.897Z,-0.40
2023-02-28T20:45:14.607Z,-0.30
2023-02-28T20:47:43.501Z,-0.40
2023-02-28T20:50:11.256Z,-0.40
2023-02-28T20:52:37.950Z,-0.40
2023-02-28T20:55:05.237Z,-0.50
2023-02-28T20:57:31.951Z,-0.50
2023-02-28T20:59:58.605Z,-0.50
2023-02-28T21:02:26.449Z,-0.60
2023-02-28T21:04:53.433Z,-0.70
2023-02-28T21:07:20.137Z,-0.60
2023-02-28T21:09:46.805Z,-0.70
2023-02-28T21:12:13.456Z,-0.80
2023-02-28T21:14:40.125Z,-0.90
2023-02-28T21:17:09.003Z,-0.80
2023-02-28T21:19:35.697Z,-0.90
2023-02-28T21:22:02.333Z,-0.90
2023-02-28T21:24:28.975Z,-1.00
2023-02-28T21:26:57.519Z,-1.00
2023-02-28T21:29:24.317Z,-1.00
2023-02-28T21:31:52.508Z,-1.10
2023-02-28T21:34:19.428Z,-1.10
2023-02-28T21:36:47.212Z,-1.10
2023-02-28T21:39:30.035Z,-1.20
2023-02-28T21:42:03.647Z,-1.20
2023-02-28T21:44:32.078Z,-1.20
2023-02-28T21:47:01.915Z,-1.20
2023-02-28T21:49:29.193Z,-1.20
2023-02-28T21:51:55.991Z,-1.30
2023-02-28T21:54:22.724Z,-1.30
2023-02-28T21:56:52.482Z,-1.40
2023-02-28T21:59:19.812Z,-1.40
2023-02-28T22:01:48.997Z,-1.40
2023-02-28T22:04:23.494Z,-1.40
2023-02-28T22:06:52.589Z,-1.30
2023-02-28T22:09:19.589Z,-1.30
2023-02-28T22:11:46.845Z,-1.30
2023-02-28T22:14:13.644Z,-1.40
2023-02-28T22:16:51.212Z,-1.40
2023-02-28T22:19:21.228Z,-1.40
2023-02-28T22:21:48.213Z,-1.50
2023-02-28T22:24:17.461Z,-1.50
2023-02-28T22:26:44.296Z,-1.50
2023-02-28T22:29:11.403Z,-1.40
2023-02-28T22:31:38.109Z,-1.50
2023-02-28T22:34:08.774Z,-1.60
2023-02-28T22:36:35.611Z,-1.70
2023-02-28T22:39:02.559Z,-1.70
2023-02-28T22:41:29.913Z,-1.80
2023-02-28T22:43:58.791Z,-1.80
2023-02-28T22:46:33.742Z,-1.90
2023-02-28T22:49:02.857Z,-1.90
2023-02-28T22:51:54.999Z,-1.90
2023-02-28T22:54:21.757Z,-1.80
2023-02-28T22:56:48.432Z,-1.90
2023-02-28T22:59:15.242Z,-1.80
2023-02-28T23:01:43.907Z,-1.90
2023-02-28T23:04:12.674Z,-2.00
2023-02-28T23:06:42.127Z,-1.80
2023-02-28T23:09:14.453Z,-2.10
2023-02-28T23:11:44.522Z,-2.10
2023-02-28T23:14:13.152Z,-2.00
2023-02-28T23:16:42.693Z,-2.10
2023-02-28T23:19:13.010Z,-2.20
2023-02-28T23:21:40.386Z,-2.20
2023-02-28T23:24:11.767Z,-2.20
2023-02-28T23:26:48.940Z,-2.30
2023-02-28T23:29:17.583Z,-2.30
2023-02-28T23:31:44.827Z,-2.40
2023-02-28T23:34:12.078Z,-2.40
2023-02-28T23:36:39.609Z,-2.50
2023-02-28T23:39:06.374Z,-2.50
2023-02-28T23:41:33.044Z,-2.50
2023-02-28T23:43:59.719Z,-2.60
2023-02-28T23:46:27.134Z,-2.60
2023-02-28T23:48:53.831Z,-2.70
2023-02-28T23:51:21.984Z,-2.70
2023-02-28T23:53:50.708Z,-2.70
2023-02-28T23:56:20.561Z,-2.60
2023-02-28T23:58:48.103Z,-2.70
